createdAt,value
2019-04-10T00:02:02.488Z,100715.55
2019-04-10T00:04:29.599Z,100709.28
2019-04-10T00:07:08.487Z,100708.52
2019-04-10T00:09:25.062Z,100706.43
2019-04-10T00:11:51.806Z,100704.17
2019-04-10T00:14:18.593Z,100704.64
2019-04-10T00:16:45.194Z,100707.98
2019-04-10T00:19:11.535Z,100711.36
2019-04-10T00:21:37.691Z,100707.20
2019-04-10T00:24:03.945Z,100709.09
2019-04-10T00:26:30.267Z,100704.63
2019-04-10T00:28:56.532Z,100713.58
2019-04-10T00:31:23.008Z,100714.78
2019-04-10T00:33:49.758Z,100715.84
2019-04-10T00:36:16.200Z,100718.34
2019-04-10T00:38:42.700Z,100716.17
2019-04-10T00:41:10.110Z,100715.75
2019-04-10T00:43:37.105Z,100719.77
2019-04-10T00:46:04.104Z,100721.71
2019-04-10T00:48:30.470Z,100721.42
2019-04-10T00:50:57.070Z,100719.86
2019-04-10T00:53:23.422Z,100725.95
2019-04-10T00:55:50.328Z,100726.02
2019-04-10T00:58:16.643Z,100724.27
2019-04-10T01:00:43.355Z,100722.70
2019-04-10T01:03:11.650Z,100723.59
2019-04-10T01:05:37.872Z,100718.60
2019-04-10T01:08:04.467Z,100712.66
2019-04-10T01:10:30.873Z,100718.92
2019-04-10T01:12:57.070Z,100713.19
2019-04-10T01:15:23.307Z,100717.88
2019-04-10T01:17:50.633Z,100724.47
2019-04-10T01:20:17.611Z,100719.81
2019-04-10T01:22:43.857Z,100722.88
2019-04-10T01:25:10.341Z,100718.36
2019-04-10T01:27:36.583Z,100721.45
2019-04-10T01:30:04.579Z,100720.38
2019-04-10T01:32:32.747Z,100727.75
2019-04-10T01:35:00.141Z,100723.25
2019-04-10T01:37:26.951Z,100723.73
2019-04-10T01:39:53.236Z,100718.41
2019-04-10T01:42:19.472Z,100728.17
2019-04-10T01:44:45.701Z,100724.85
2019-04-10T01:47:13.001Z,100726.66
2019-04-10T01:49:39.878Z,100730.17
2019-04-10T01:52:06.951Z,100733.27
2019-04-10T01:54:33.356Z,100721.34
2019-04-10T01:56:59.746Z,100721.00
2019-04-10T01:59:27.262Z,100720.69
2019-04-10T02:02:05.157Z,100724.72
2019-04-10T02:04:31.565Z,100722.30
2019-04-10T02:06:58.012Z,100718.69
2019-04-10T02:09:24.241Z,100718.66
2019-04-10T02:11:50.402Z,100724.69
2019-04-10T02:14:16.666Z,100726.95
2019-04-10T02:16:43.252Z,100723.91
2019-04-10T02:19:10.105Z,100721.89
2019-04-10T02:21:36.187Z,100730.15
2019-04-10T02:24:02.956Z,100725.64
2019-04-10T02:26:29.728Z,100726.28
2019-04-10T02:28:56.251Z,100725.64
2019-04-10T02:31:25.750Z,100723.84
2019-04-10T02:33:53.625Z,100724.98
2019-04-10T02:36:21.201Z,100726.56
2019-04-10T02:38:59.326Z,100727.66
2019-04-10T02:41:15.953Z,100728.02
2019-04-10T02:43:43.467Z,100733.55
2019-04-10T02:46:09.550Z,100724.04
2019-04-10T02:48:36.124Z,100729.10
2019-04-10T02:51:02.486Z,100725.73
2019-04-10T02:53:29.613Z,100729.72
2019-04-10T02:55:58.014Z,100733.89
2019-04-10T02:58:24.709Z,100732.01
2019-04-10T03:00:52.545Z,100730.39
2019-04-10T03:03:20.202Z,100727.31
2019-04-10T03:05:46.764Z,100731.98
2019-04-10T03:08:14.984Z,100727.59
2019-04-10T03:10:48.525Z,100727.95
2019-04-10T03:13:09.569Z,100730.58
2019-04-10T03:15:38.838Z,100735.13
2019-04-10T03:18:06.457Z,100736.17
2019-04-10T03:20:32.801Z,100729.95
2019-04-10T03:22:59.025Z,100730.86
2019-04-10T03:25:25.271Z,100736.48
2019-04-10T03:27:52.551Z,100729.10
2019-04-10T03:30:22.192Z,100738.24
2019-04-10T03:33:09.369Z,100730.19
2019-04-10T03:35:35.674Z,100736.48
2019-04-10T03:38:01.789Z,100731.51
2019-04-10T03:40:29.141Z,100732.52
2019-04-10T03:42:55.636Z,100727.23
2019-04-10T03:45:22.378Z,100729.38
2019-04-10T03:47:49.419Z,100733.64
2019-04-10T03:50:16.312Z,100725.07
2019-04-10T03:52:43.264Z,100731.60
2019-04-10T03:55:10.479Z,100729.23
2019-04-10T03:57:36.725Z,100735.94
2019-04-10T04:00:06.267Z,100734.75
2019-04-10T04:02:32.379Z,100730.20
2019-04-10T04:04:58.725Z,100733.71
2019-04-10T04:07:26.993Z,100727.43
2019-04-10T04:09:53.638Z,100736.45
2019-04-10T04:12:20.242Z,100739.03
2019-04-10T04:14:46.429Z,100739.11
2019-04-10T04:17:13.622Z,100739.11
2019-04-10T04:19:40.022Z,100736.78
2019-04-10T04:22:06.182Z,100743.97
2019-04-10T04:24:32.327Z,100740.34
2019-04-10T04:26:58.458Z,100740.81
2019-04-10T04:29:24.784Z,100741.53
2019-04-10T04:31:50.918Z,100740.08
2019-04-10T04:34:17.229Z,100747.78
2019-04-10T04:36:43.369Z,100752.63
2019-04-10T04:39:20.641Z,100749.81
2019-04-10T04:41:38.311Z,100756.92
2019-04-10T04:44:04.629Z,100757.34
2019-04-10T04:46:30.925Z,100760.51
2019-04-10T04:48:57.737Z,100765.65
2019-04-10T04:51:25.816Z,100766.47
2019-04-10T04:53:52.442Z,100768.52
2019-04-10T04:56:19.627Z,100769.44
2019-04-10T04:58:46.185Z,100773.70
2019-04-10T05:01:12.717Z,100780.30
2019-04-10T05:03:39.278Z,100780.17
2019-04-10T05:06:06.418Z,100783.16
2019-04-10T05:08:32.642Z,100784.62
2019-04-10T05:11:00.184Z,100789.59
2019-04-10T05:13:26.427Z,100789.28
2019-04-10T05:15:53.354Z,100797.95
2019-04-10T05:18:19.496Z,100795.38
2019-04-10T05:20:49.974Z,100799.45
2019-04-10T05:23:13.968Z,100806.95
2019-04-10T05:25:41.518Z,100809.91
2019-04-10T05:28:07.873Z,100816.86
2019-04-10T05:30:33.938Z,100816.03
2019-04-10T05:33:00.079Z,100813.70
2019-04-10T05:35:26.185Z,100822.13
2019-04-10T05:37:52.406Z,100821.89
2019-04-10T05:40:19.413Z,100824.28
2019-04-10T05:42:45.707Z,100827.31
2019-04-10T05:45:12.697Z,100830.88
2019-04-10T05:47:38.908Z,100835.61
2019-04-10T05:50:06.121Z,100834.10
2019-04-10T05:52:33.217Z,100841.30
2019-04-10T05:54:59.907Z,100839.70
2019-04-10T05:57:26.755Z,100839.11
2019-04-10T05:59:52.927Z,100845.24
2019-04-10T06:02:19.135Z,100847.60
2019-04-10T06:04:45.522Z,100843.84
2019-04-10T06:07:12.720Z,100853.79
2019-04-10T06:09:51.916Z,100855.05
2019-04-10T06:12:07.231Z,100849.69
2019-04-10T06:14:34.522Z,100855.34
2019-04-10T06:17:04.116Z,100860.19
2019-04-10T06:19:30.079Z,100859.44
2019-04-10T06:21:56.588Z,100856.48
2019-04-10T06:24:22.922Z,100852.97
2019-04-10T06:26:50.072Z,100854.45
2019-04-10T06:29:17.110Z,100856.52
2019-04-10T06:31:43.527Z,100857.16
2019-04-10T06:34:10.849Z,100863.16
2019-04-10T06:36:37.878Z,100865.02
2019-04-10T06:39:05.000Z,100860.18
2019-04-10T06:41:32.636Z,100864.02
2019-04-10T06:43:58.864Z,100860.92
2019-04-10T06:46:25.060Z,100869.42
2019-04-10T06:48:53.195Z,100870.34
2019-04-10T06:51:21.033Z,100870.48
2019-04-10T06:53:59.431Z,100867.16
2019-04-10T06:56:16.615Z,100867.80
2019-04-10T06:58:42.760Z,100878.31
2019-04-10T07:01:09.084Z,100874.16
2019-04-10T07:03:49.429Z,100873.59
2019-04-10T07:06:13.393Z,100876.92
2019-04-10T07:08:34.007Z,100866.03
2019-04-10T07:11:05.989Z,100873.49
2019-04-10T07:13:28.617Z,100870.56
2019-04-10T07:15:58.058Z,100879.05
2019-04-10T07:18:24.234Z,100877.40
2019-04-10T07:20:50.641Z,100872.69
2019-04-10T07:23:23.363Z,100877.84
2019-04-10T07:25:46.900Z,100884.12
2019-04-10T07:28:13.732Z,100878.59
2019-04-10T07:30:40.065Z,100875.84
2019-04-10T07:33:06.272Z,100881.81
2019-04-10T07:35:35.141Z,100879.03
2019-04-10T07:38:01.712Z,100874.81
2019-04-10T07:40:28.370Z,100877.47
2019-04-10T07:42:54.654Z,100877.22
2019-04-10T07:45:20.960Z,100882.87
2019-04-10T07:47:48.224Z,100880.76
2019-04-10T07:50:14.861Z,100878.56
2019-04-10T07:52:41.394Z,100884.02
2019-04-10T07:55:08.711Z,100881.41
2019-04-10T07:57:34.831Z,100882.39
2019-04-10T08:00:01.042Z,100875.53
2019-04-10T08:02:27.580Z,100878.59
2019-04-10T08:04:54.002Z,100875.84
2019-04-10T08:07:29.682Z,100874.30
2019-04-10T08:09:48.373Z,100881.44
2019-04-10T08:12:15.545Z,100885.63
2019-04-10T08:14:42.093Z,100886.79
2019-04-10T08:17:08.498Z,100890.45
2019-04-10T08:19:35.638Z,100887.27
2019-04-10T08:22:01.969Z,100890.56
2019-04-10T08:24:28.113Z,100894.59
2019-04-10T08:26:54.833Z,100886.56
2019-04-10T08:29:21.817Z,100885.27
2019-04-10T08:31:48.394Z,100885.75
2019-04-10T08:34:15.093Z,100890.04
2019-04-10T08:36:41.601Z,100898.25
2019-04-10T08:39:07.949Z,100890.99
2019-04-10T08:41:35.156Z,100895.95
2019-04-10T08:44:02.221Z,100895.74
2019-04-10T08:46:28.541Z,100893.28
2019-04-10T08:48:55.950Z,100897.36
2019-04-10T08:51:23.418Z,100901.00
2019-04-10T08:53:50.784Z,100902.55
2019-04-10T08:56:17.040Z,100900.37
2019-04-10T08:58:43.384Z,100905.73
2019-04-10T09:01:09.566Z,100897.91
2019-04-10T09:03:37.085Z,100894.22
2019-04-10T09:06:04.728Z,100897.41
2019-04-10T09:08:31.239Z,100895.66
2019-04-10T09:10:57.385Z,100899.57
2019-04-10T09:13:24.319Z,100899.30
2019-04-10T09:15:50.663Z,100898.95
2019-04-10T09:18:17.022Z,100893.33
2019-04-10T09:20:44.281Z,100903.46
2019-04-10T09:23:23.622Z,100903.91
2019-04-10T09:25:39.450Z,100901.35
2019-04-10T09:28:06.446Z,100903.61
2019-04-10T09:30:34.035Z,100903.55
2019-04-10T09:33:02.952Z,100908.10
2019-04-10T09:35:30.768Z,100897.27
2019-04-10T09:37:57.056Z,100887.24
2019-04-10T09:40:24.424Z,100897.83
2019-04-10T09:42:50.640Z,100897.83
2019-04-10T09:45:17.793Z,100897.98
2019-04-10T09:47:44.119Z,100888.72
2019-04-10T09:50:10.915Z,100899.06
2019-04-10T09:52:37.612Z,100889.67
2019-04-10T09:55:05.098Z,100893.39
2019-04-10T09:57:32.206Z,100888.45
2019-04-10T09:59:58.496Z,100889.82
2019-04-10T10:02:25.265Z,100888.75
2019-04-10T10:04:51.732Z,100889.27
2019-04-10T10:07:18.603Z,100892.80
2019-04-10T10:09:45.202Z,100885.77
2019-04-10T10:12:11.707Z,100892.06
2019-04-10T10:14:38.105Z,100897.19
2019-04-10T10:17:04.557Z,100890.48
2019-04-10T10:19:30.777Z,100897.72
2019-04-10T10:21:57.101Z,100896.39
2019-04-10T10:24:24.573Z,100889.38
2019-04-10T10:26:51.460Z,100898.98
2019-04-10T10:29:17.815Z,100893.04
2019-04-10T10:31:44.447Z,100885.19
2019-04-10T10:34:10.945Z,100875.17
2019-04-10T10:36:41.932Z,100895.16
2019-04-10T10:39:16.112Z,100899.08
2019-04-10T10:41:45.376Z,100897.02
2019-04-10T10:44:11.704Z,100888.14
2019-04-10T10:46:38.111Z,100897.51
2019-04-10T10:49:04.433Z,100893.00
2019-04-10T10:51:30.930Z,100887.05
2019-04-10T10:54:00.064Z,100891.55
2019-04-10T10:56:26.504Z,100900.75
2019-04-10T10:58:53.569Z,100888.99
2019-04-10T11:01:22.014Z,100888.99
2019-04-10T11:03:48.791Z,100894.86
2019-04-10T11:06:16.674Z,100887.17
2019-04-10T11:08:43.907Z,100891.88
2019-04-10T11:11:10.314Z,100898.04
2019-04-10T11:13:37.150Z,100889.60
2019-04-10T11:16:05.668Z,100882.98
2019-04-10T11:18:32.752Z,100882.98
2019-04-10T11:21:04.618Z,100896.39
2019-04-10T11:23:28.448Z,100878.97
2019-04-10T11:25:57.737Z,100884.08
2019-04-10T11:28:29.931Z,100892.91
2019-04-10T11:30:53.587Z,100892.91
2019-04-10T11:33:19.912Z,100898.57
2019-04-10T11:35:46.135Z,100901.09
2019-04-10T11:38:13.384Z,100891.62
2019-04-10T11:40:41.407Z,100895.86
2019-04-10T11:43:07.809Z,100895.86
2019-04-10T11:48:02.685Z,100897.59
2019-04-10T11:50:32.206Z,100894.14
2019-04-10T11:53:01.773Z,100904.30
2019-04-10T11:55:29.581Z,100898.41
2019-04-10T11:57:59.278Z,100901.05
2019-04-10T12:00:49.199Z,100902.55
2019-04-10T12:05:41.396Z,100903.13
2019-04-10T12:08:33.612Z,100903.25
2019-04-10T12:13:05.988Z,100898.95
2019-04-10T12:15:32.401Z,100896.78
2019-04-10T12:17:58.797Z,100896.78
2019-04-10T12:20:25.258Z,100902.48
2019-04-10T12:22:52.442Z,100895.59
2019-04-10T12:25:19.125Z,100902.55
2019-04-10T12:27:45.543Z,100902.91
2019-04-10T12:30:13.162Z,100901.09
2019-04-10T12:32:39.593Z,100903.46
2019-04-10T12:35:07.347Z,100905.58
2019-04-10T12:37:34.969Z,100902.48
2019-04-10T12:40:01.469Z,100912.11
2019-04-10T12:42:28.945Z,100912.26
2019-04-10T12:44:55.562Z,100913.32
2019-04-10T12:47:21.857Z,100909.21
2019-04-10T12:49:48.099Z,100908.34
2019-04-10T12:52:14.390Z,100906.73
2019-04-10T12:54:40.596Z,100912.97
2019-04-10T12:57:07.147Z,100907.47
2019-04-10T12:59:33.474Z,100905.94
2019-04-10T13:02:00.715Z,100908.30
2019-04-10T13:04:28.190Z,100911.34
2019-04-10T13:06:54.821Z,100896.83
2019-04-10T13:09:22.136Z,100903.98
2019-04-10T13:11:48.993Z,100902.55
2019-04-10T13:14:15.387Z,100910.77
2019-04-10T13:16:42.741Z,100903.20
2019-04-10T13:19:09.171Z,100901.09
2019-04-10T13:21:35.316Z,100900.43
2019-04-10T13:24:03.650Z,100905.22
2019-04-10T13:26:30.161Z,100897.08
2019-04-10T13:28:56.415Z,100912.63
2019-04-10T13:31:23.556Z,100900.03
2019-04-10T13:33:50.982Z,100902.13
2019-04-10T13:36:17.607Z,100910.05
2019-04-10T13:38:44.409Z,100901.45
2019-04-10T13:41:10.762Z,100903.20
2019-04-10T13:43:37.988Z,100908.06
2019-04-10T13:46:04.706Z,100905.09
2019-04-10T13:48:31.481Z,100902.28
2019-04-10T13:50:59.017Z,100894.12
2019-04-10T13:53:26.009Z,100898.50
2019-04-10T13:55:52.668Z,100901.66
2019-04-10T13:58:19.327Z,100902.95
2019-04-10T14:00:47.040Z,100907.19
2019-04-10T14:03:14.343Z,100905.81
2019-04-10T14:05:41.216Z,100897.67
2019-04-10T14:08:08.382Z,100902.58
2019-04-10T14:10:35.291Z,100905.97
2019-04-10T14:13:03.120Z,100903.20
2019-04-10T14:15:30.402Z,100897.38
2019-04-10T14:17:57.703Z,100910.33
2019-04-10T14:20:24.229Z,100906.27
2019-04-10T14:22:53.643Z,100918.04
2019-04-10T14:25:23.327Z,100910.20
2019-04-10T14:27:49.710Z,100909.23
2019-04-10T14:30:30.074Z,100907.17
2019-04-10T14:32:56.641Z,100907.17
2019-04-10T14:35:23.143Z,100903.85
2019-04-10T14:37:52.394Z,100907.14
2019-04-10T14:40:20.051Z,100910.41
2019-04-10T14:42:47.219Z,100925.42
2019-04-10T14:45:13.768Z,100913.45
2019-04-10T14:47:40.093Z,100913.45
2019-04-10T14:50:07.841Z,100914.57
2019-04-10T14:52:34.985Z,100915.32
2019-04-10T14:55:02.110Z,100919.27
2019-04-10T14:57:28.646Z,100918.53
2019-04-10T14:59:56.049Z,100926.14
2019-04-10T15:02:22.765Z,100926.62
2019-04-10T15:04:49.238Z,100928.11
2019-04-10T15:07:15.678Z,100933.45
2019-04-10T15:09:42.054Z,100933.45
2019-04-10T15:12:10.014Z,100926.87
2019-04-10T15:14:37.504Z,100933.36
2019-04-10T15:17:05.960Z,100933.36
2019-04-10T15:19:32.297Z,100930.26
2019-04-10T15:21:59.100Z,100934.83
2019-04-10T15:24:27.829Z,100931.75
2019-04-10T15:26:55.670Z,100935.92
2019-04-10T15:29:22.651Z,100941.91
2019-04-10T15:31:50.228Z,100932.39
2019-04-10T15:34:18.308Z,100935.77
2019-04-10T15:36:46.079Z,100936.38
2019-04-10T15:39:13.121Z,100935.58
2019-04-10T15:41:39.521Z,100935.34
2019-04-10T15:44:05.879Z,100935.55
2019-04-10T15:46:33.120Z,100935.64
2019-04-10T15:49:00.549Z,100939.39
2019-04-10T15:51:29.945Z,100949.53
2019-04-10T15:54:01.241Z,100950.84
2019-04-10T15:56:27.754Z,100950.84
2019-04-10T15:58:55.475Z,100952.05
2019-04-10T16:01:23.680Z,100950.72
2019-04-10T16:03:50.595Z,100950.72
2019-04-10T16:06:17.483Z,100947.23
2019-04-10T16:08:44.805Z,100945.96
2019-04-10T16:11:30.002Z,100947.50
2019-04-10T16:13:59.044Z,100954.61
2019-04-10T16:16:33.987Z,100951.17
2019-04-10T16:19:02.352Z,100961.05
2019-04-10T16:21:29.691Z,100959.37
2019-04-10T16:24:00.825Z,100959.02
2019-04-10T16:26:27.849Z,100959.02
2019-04-10T16:28:54.107Z,100957.08
2019-04-10T16:31:21.346Z,100959.25
2019-04-10T16:33:48.355Z,100964.52
2019-04-10T16:36:15.794Z,100962.80
2019-04-10T16:38:42.040Z,100956.72
2019-04-10T16:41:08.348Z,100959.36
2019-04-10T16:43:34.704Z,100961.61
2019-04-10T16:46:01.091Z,100968.30
2019-04-10T16:48:28.241Z,100971.58
2019-04-10T16:50:54.696Z,100970.84
2019-04-10T16:53:22.130Z,100971.73
2019-04-10T16:55:49.200Z,100971.73
2019-04-10T16:58:17.915Z,100972.22
2019-04-10T17:00:45.294Z,100973.48
2019-04-10T17:03:11.829Z,100973.48
2019-04-10T17:05:38.276Z,100982.11
2019-04-10T17:08:05.690Z,100982.11
2019-04-10T17:10:32.515Z,100990.88
2019-04-10T17:12:58.899Z,100991.52
2019-04-10T17:15:26.080Z,100984.94
2019-04-10T17:17:52.703Z,100975.63
2019-04-10T17:20:20.387Z,100983.98
2019-04-10T17:22:49.131Z,100983.81
2019-04-10T17:25:15.205Z,100986.03
2019-04-10T17:27:41.676Z,100989.67
2019-04-10T17:30:09.461Z,100998.55
2019-04-10T17:32:36.332Z,100995.12
2019-04-10T17:35:05.320Z,100994.38
2019-04-10T17:37:33.869Z,100998.81
2019-04-10T17:40:01.865Z,100998.64
2019-04-10T17:42:30.564Z,101005.34
2019-04-10T17:44:58.061Z,101002.59
2019-04-10T17:47:25.056Z,101007.79
2019-04-10T17:49:51.823Z,101015.43
2019-04-10T17:52:20.789Z,101012.91
2019-04-10T17:54:47.250Z,101017.04
2019-04-10T17:57:14.792Z,101013.17
2019-04-10T17:59:42.500Z,101019.91
2019-04-10T18:02:11.688Z,101022.23
2019-04-10T18:04:38.198Z,101025.17
2019-04-10T18:07:04.571Z,101028.83
2019-04-10T18:09:31.026Z,101034.80
2019-04-10T18:12:00.401Z,101031.25
2019-04-10T18:14:25.398Z,101040.03
2019-04-10T18:16:52.059Z,101044.92
2019-04-10T18:19:19.131Z,101049.52
2019-04-10T18:21:45.984Z,101055.34
2019-04-10T18:24:12.386Z,101055.21
2019-04-10T18:26:43.733Z,101058.44
2019-04-10T18:29:10.739Z,101067.06
2019-04-10T18:31:37.256Z,101067.52
2019-04-10T18:34:07.082Z,101067.72
2019-04-10T18:36:31.956Z,101075.44
2019-04-10T18:38:58.435Z,101071.89
2019-04-10T18:41:24.756Z,101074.98
2019-04-10T18:43:51.425Z,101074.74
2019-04-10T18:46:19.487Z,101083.23
2019-04-10T18:48:47.183Z,101084.11
2019-04-10T18:51:16.055Z,101090.66
2019-04-10T18:53:42.942Z,101096.95
2019-04-10T18:56:11.202Z,101097.62
2019-04-10T18:58:40.186Z,101103.03
2019-04-10T19:01:13.165Z,101108.25
2019-04-10T19:03:53.381Z,101108.66
2019-04-10T19:06:20.521Z,101112.95
2019-04-10T19:09:00.065Z,101115.25
2019-04-10T19:11:22.788Z,101113.82
2019-04-10T19:13:43.153Z,101121.17
2019-04-10T19:16:12.924Z,101119.09
2019-04-10T19:18:39.559Z,101127.41
2019-04-10T19:21:07.012Z,101123.06
2019-04-10T19:23:33.533Z,101133.91
2019-04-10T19:25:59.916Z,101133.84
2019-04-10T19:28:31.678Z,101134.38
2019-04-10T19:31:09.557Z,101139.14
2019-04-10T19:33:25.956Z,101138.03
2019-04-10T19:35:53.111Z,101140.22
2019-04-10T19:38:19.675Z,101140.13
2019-04-10T19:40:45.916Z,101145.09
2019-04-10T19:43:12.251Z,101147.69
2019-04-10T19:45:39.760Z,101148.38
2019-04-10T19:48:06.828Z,101145.92
2019-04-10T19:50:33.408Z,101151.54
2019-04-10T19:53:00.536Z,101155.84
2019-04-10T19:55:27.515Z,101149.17
2019-04-10T19:57:54.047Z,101151.48
2019-04-10T20:00:22.373Z,101157.97
2019-04-10T20:02:49.020Z,101160.55
2019-04-10T20:05:15.531Z,101158.34
2019-04-10T20:07:42.822Z,101161.40
2019-04-10T20:10:10.793Z,101162.60
2019-04-10T20:12:40.382Z,101165.84
2019-04-10T20:15:07.188Z,101166.16
2019-04-10T20:17:35.700Z,101165.83
2019-04-10T20:20:04.751Z,101171.52
2019-04-10T20:22:30.897Z,101162.37
2019-04-10T20:24:57.245Z,101170.14
2019-04-10T20:27:23.773Z,101178.08
2019-04-10T20:29:51.063Z,101176.05
2019-04-10T20:32:17.729Z,101182.08
2019-04-10T20:34:44.053Z,101177.67
2019-04-10T20:37:11.838Z,101186.08
2019-04-10T20:39:39.211Z,101187.16
2019-04-10T20:42:05.754Z,101193.92
2019-04-10T20:44:34.504Z,101185.95
2019-04-10T20:47:00.830Z,101194.66
2019-04-10T20:49:28.057Z,101190.30
2019-04-10T20:51:57.883Z,101200.41
2019-04-10T20:54:24.493Z,101195.94
2019-04-10T20:56:50.850Z,101194.52
2019-04-10T20:59:17.532Z,101199.69
2019-04-10T21:01:44.939Z,101193.55
2019-04-10T21:04:11.408Z,101200.33
2019-04-10T21:06:39.540Z,101197.42
2019-04-10T21:09:07.420Z,101203.78
2019-04-10T21:11:33.921Z,101201.79
2019-04-10T21:14:00.235Z,101209.38
2019-04-10T21:16:27.347Z,101204.67
2019-04-10T21:18:53.935Z,101204.03
2019-04-10T21:21:20.211Z,101208.39
2019-04-10T21:23:46.544Z,101204.68
2019-04-10T21:26:14.360Z,101209.22
2019-04-10T21:28:41.601Z,101207.42
2019-04-10T21:31:13.848Z,101204.69
2019-04-10T21:33:58.575Z,101213.06
2019-04-10T21:36:26.194Z,101205.22
2019-04-10T21:38:52.657Z,101210.79
2019-04-10T21:41:19.995Z,101211.41
2019-04-10T21:43:47.286Z,101215.23
2019-04-10T21:46:14.400Z,101220.01
2019-04-10T21:48:41.941Z,101218.98
2019-04-10T21:51:08.807Z,101217.84
2019-04-10T21:53:35.959Z,101221.09
2019-04-10T21:56:04.161Z,101221.61
2019-04-10T21:58:30.485Z,101228.16
2019-04-10T22:00:59.870Z,101231.75
2019-04-10T22:03:27.532Z,101222.16
2019-04-10T22:06:01.593Z,101227.55
2019-04-10T22:08:37.176Z,101218.12
2019-04-10T22:11:04.336Z,101226.40
2019-04-10T22:13:30.809Z,101228.78
2019-04-10T22:15:57.928Z,101230.42
2019-04-10T22:18:25.282Z,101237.30
2019-04-10T22:20:52.090Z,101238.53
2019-04-10T22:23:18.536Z,101241.11
2019-04-10T22:25:45.884Z,101237.31
2019-04-10T22:28:12.683Z,101240.67
2019-04-10T22:30:39.049Z,101243.35
2019-04-10T22:33:05.468Z,101242.74
2019-04-10T22:35:31.895Z,101242.81
2019-04-10T22:37:58.197Z,101251.91
2019-04-10T22:40:25.639Z,101250.11
2019-04-10T22:42:53.176Z,101254.77
2019-04-10T22:45:26.331Z,101249.02
2019-04-10T22:47:54.239Z,101251.50
2019-04-10T22:50:20.583Z,101255.81
2019-04-10T22:52:47.057Z,101260.84
2019-04-10T22:55:13.517Z,101256.49
2019-04-10T22:57:41.509Z,101260.31
2019-04-10T23:00:10.007Z,101261.61
2019-04-10T23:02:38.109Z,101265.14
2019-04-10T23:05:04.691Z,101264.36
2019-04-10T23:07:30.861Z,101268.89
2019-04-10T23:09:57.151Z,101272.31
2019-04-10T23:12:24.463Z,101270.20
2019-04-10T23:14:51.175Z,101268.69
2019-04-10T23:17:17.579Z,101269.47
2019-04-10T23:19:44.579Z,101277.72
2019-04-10T23:22:13.340Z,101272.47
2019-04-10T23:24:40.153Z,101273.39
2019-04-10T23:27:06.613Z,101281.02
2019-04-10T23:29:32.804Z,101272.09
2019-04-10T23:31:58.922Z,101278.08
2019-04-10T23:34:25.191Z,101276.40
2019-04-10T23:36:51.551Z,101281.36
2019-04-10T23:39:17.729Z,101276.91
2019-04-10T23:41:43.836Z,101277.96
2019-04-10T23:44:10.943Z,101279.27
2019-04-10T23:46:37.408Z,101277.03
2019-04-10T23:49:05.595Z,101273.34
2019-04-10T23:51:31.862Z,101275.62
2019-04-10T23:53:58.042Z,101275.73
2019-04-10T23:56:24.352Z,101283.06
2019-04-10T23:58:50.809Z,101289.59
